Time;durP1;ratioP1;P1;durP2;ratioP2;P2;SDS_P1;SDS_P2;PMS_P1;PMS_P2;Temp;Humidity;BMP_temperature;BMP_pressure;BME280_temperature;BME280_humidity;BME280_pressure;Samples;Min_cycle;Max_cycle;Signal;HPM_P1;HPM_P2
2023/01/10 00:02:18;;;;;;;;;;;;;;;3.51;87.41;100002.00;105111;1293;61217;-81
2023/01/10 00:04:44;;;;;;;;;;;;;;;3.54;87.41;100005.76;105093;1294;60456;-81
2023/01/10 00:07:09;;;;;;;;;;;;;;;3.56;87.45;100008.31;105188;1290;59181;-81
2023/01/10 00:09:35;;;;;;;;;;;;;;;3.58;87.41;100014.29;105187;1291;60033;-81
2023/01/10 00:14:45;;;;;;;;;;;;;;;3.61;87.46;100021.80;105156;1290;67426;-82
2023/01/10 00:17:10;;;;;;;;;;;;;;;3.63;87.45;100019.06;105108;1291;59153;-82
2023/01/10 00:19:36;;;;;;;;;;;;;;;3.65;87.50;100023.48;105077;1291;59255;-81
2023/01/10 00:22:06;;;;;;;;;;;;;;;3.68;87.49;100019.73;105230;1291;60471;-81
2023/01/10 00:24:32;;;;;;;;;;;;;;;3.69;87.44;100016.50;105167;1291;73460;-81
2023/01/10 00:26:58;;;;;;;;;;;;;;;3.71;87.45;100014.45;104979;1291;60514;-81
2023/01/10 00:29:27;;;;;;;;;;;;;;;3.71;87.42;100023.84;105182;1291;61354;-81
2023/01/10 00:31:53;;;;;;;;;;;;;;;3.71;87.36;100024.34;105186;1291;58578;-81
2023/01/10 00:34:19;;;;;;;;;;;;;;;3.71;87.40;100034.40;105222;1290;59286;-81
2023/01/10 00:36:46;;;;;;;;;;;;;;;3.69;87.37;100029.45;105205;1295;58797;-81
2023/01/10 00:39:13;;;;;;;;;;;;;;;3.64;87.37;100029.80;105219;1291;60987;-81
2023/01/10 00:44:23;;;;;;;;;;;;;;;3.62;87.48;100044.80;105115;1291;59046;-81
2023/01/10 00:46:48;;;;;;;;;;;;;;;3.62;87.42;100051.80;105156;1295;60513;-81
2023/01/10 00:49:15;;;;;;;;;;;;;;;3.61;87.48;100059.96;105237;1291;58559;-81
2023/01/10 00:51:41;;;;;;;;;;;;;;;3.61;87.50;100059.45;105060;1296;59641;-81
2023/01/10 00:54:08;;;;;;;;;;;;;;;3.59;87.41;100058.77;105099;1291;60449;-81
2023/01/10 00:56:33;;;;;;;;;;;;;;;3.58;87.46;100070.02;105061;1295;60470;-81
2023/01/10 00:58:58;;;;;;;;;;;;;;;3.58;87.44;100077.34;104984;1291;59488;-81
2023/01/10 01:01:24;;;;;;;;;;;;;;;3.59;87.48;100078.36;105201;1290;57896;-81
2023/01/10 01:03:49;;;;;;;;;;;;;;;3.59;87.47;100081.61;105960;1291;58431;-82
2023/01/10 01:06:15;;;;;;;;;;;;;;;3.60;87.51;100078.38;106092;1291;58710;-82
2023/01/10 01:08:40;;;;;;;;;;;;;;;3.62;87.49;100082.12;105193;1291;58948;-81
2023/01/10 01:11:05;;;;;;;;;;;;;;;3.64;87.51;100082.80;105085;1291;60600;-81
2023/01/10 01:13:31;;;;;;;;;;;;;;;3.66;87.55;100087.39;105090;1291;60594;-81
2023/01/10 01:15:57;;;;;;;;;;;;;;;3.69;87.54;100085.19;104927;1291;62732;-81
2023/01/10 01:18:23;;;;;;;;;;;;;;;3.71;87.57;100088.09;105135;1291;60505;-81
2023/01/10 01:20:52;;;;;;;;;;;;;;;3.72;87.60;100089.97;105209;1291;60490;-82
2023/01/10 01:23:17;;;;;;;;;;;;;;;3.73;87.57;100087.41;105043;1291;68512;-81
2023/01/10 01:25:42;;;;;;;;;;;;;;;3.75;87.62;100093.55;105168;1290;60462;-82
2023/01/10 01:28:11;;;;;;;;;;;;;;;3.77;87.64;100095.44;105229;1290;59275;-82
2023/01/10 01:30:37;;;;;;;;;;;;;;;3.79;87.68;100102.95;104970;1294;59126;-82
2023/01/10 01:33:03;;;;;;;;;;;;;;;3.81;87.60;100102.61;105195;1291;60502;-81
2023/01/10 01:35:28;;;;;;;;;;;;;;;3.81;87.66;100108.23;105238;1291;60475;-82
2023/01/10 01:37:54;;;;;;;;;;;;;;;3.82;87.67;100117.95;105108;1291;60387;-82
2023/01/10 01:40:21;;;;;;;;;;;;;;;3.83;87.62;100116.42;105149;1291;59266;-81
2023/01/10 01:42:48;;;;;;;;;;;;;;;3.83;87.61;100111.83;105253;1291;74675;-82
2023/01/10 01:45:34;;;;;;;;;;;;;;;3.84;87.63;100108.94;105093;1291;68345;-81
2023/01/10 01:48:03;;;;;;;;;;;;;;;3.85;87.64;100109.80;105167;1291;72808;-81
2023/01/10 01:50:28;;;;;;;;;;;;;;;3.86;87.62;100120.20;104951;1294;60381;-82
2023/01/10 01:52:56;;;;;;;;;;;;;;;3.86;87.66;100127.18;104952;1295;59529;-81
2023/01/10 01:55:25;;;;;;;;;;;;;;;3.85;87.67;100134.01;104927;1294;73662;-81
2023/01/10 01:57:53;;;;;;;;;;;;;;;3.84;87.61;100132.46;104992;1294;69609;-81
2023/01/10 02:00:19;;;;;;;;;;;;;;;3.83;87.57;100132.45;104947;1293;73546;-81
2023/01/10 02:02:47;;;;;;;;;;;;;;;3.83;87.63;100131.77;104880;1293;60486;-82
2023/01/10 02:05:14;;;;;;;;;;;;;;;3.83;87.77;100134.84;104863;1293;60303;-81
2023/01/10 02:07:43;;;;;;;;;;;;;;;3.83;87.68;100134.84;104970;1294;73538;-82
2023/01/10 02:10:35;;;;;;;;;;;;;;;3.83;87.66;100138.94;105000;1295;68336;-81
2023/01/10 02:13:02;;;;;;;;;;;;;;;3.82;87.65;100142.69;104462;1300;72457;-82
2023/01/10 02:15:28;;;;;;;;;;;;;;;3.81;87.69;100143.36;104395;1300;60378;-82
2023/01/10 02:17:54;;;;;;;;;;;;;;;3.80;87.63;100141.98;104479;1300;60537;-81
2023/01/10 02:20:20;;;;;;;;;;;;;;;3.79;87.61;100147.27;104453;1300;60503;-82
2023/01/10 02:23:04;;;;;;;;;;;;;;;3.79;87.57;100150.17;104457;1300;61046;-81
2023/01/10 02:25:33;;;;;;;;;;;;;;;3.77;87.61;100150.16;104433;1302;72609;-81
2023/01/10 02:28:21;;;;;;;;;;;;;;;3.77;87.61;100150.34;104478;1299;60561;-82
2023/01/10 02:31:09;;;;;;;;;;;;;;;3.76;87.54;100153.23;104230;1302;60471;-81
2023/01/10 02:33:43;;;;;;;;;;;;;;;3.75;87.60;100153.56;104062;1306;73399;-81
2023/01/10 02:36:11;;;;;;;;;;;;;;;3.74;87.55;100159.35;104113;1305;68448;-82
2023/01/10 02:38:49;;;;;;;;;;;;;;;3.73;87.60;100158.66;104025;1305;72480;-81
2023/01/10 02:41:32;;;;;;;;;;;;;;;3.71;87.54;100161.56;104037;1305;60933;-81
2023/01/10 02:44:14;;;;;;;;;;;;;;;3.69;87.50;100159.67;104053;1306;60514;-81
2023/01/10 02:46:40;;;;;;;;;;;;;;;3.65;87.47;100162.39;103901;1306;252704;-81
2023/01/10 02:49:06;;;;;;;;;;;;;;;3.63;87.46;100161.38;103954;1305;59205;-81
2023/01/10 02:51:34;;;;;;;;;;;;;;;3.60;87.54;100161.88;104256;1302;58407;-81
2023/01/10 02:54:08;;;;;;;;;;;;;;;3.59;87.49;100164.77;104260;1302;60491;-81
2023/01/10 02:57:00;;;;;;;;;;;;;;;3.57;87.51;100164.92;104282;1303;59689;-82
2023/01/10 02:59:28;;;;;;;;;;;;;;;3.56;87.53;100170.38;103969;1309;74872;-82
2023/01/10 03:02:06;;;;;;;;;;;;;;;3.55;87.56;100171.23;103954;1306;67628;-81
2023/01/10 03:04:38;;;;;;;;;;;;;;;3.56;87.59;100175.83;103757;1309;72600;-82
2023/01/10 03:07:22;;;;;;;;;;;;;;;3.56;87.61;100178.23;103976;1306;60539;-82
2023/01/10 03:10:11;;;;;;;;;;;;;;;3.57;87.67;100180.61;103986;1305;60360;-82
2023/01/10 03:12:55;;;;;;;;;;;;;;;3.58;87.63;100182.15;104535;1300;73547;-82
2023/01/10 03:15:24;;;;;;;;;;;;;;;3.58;87.58;100188.11;104536;1302;69436;-82
2023/01/10 03:17:54;;;;;;;;;;;;;;;3.58;87.64;100190.33;104549;1299;72538;-82
2023/01/10 03:20:20;;;;;;;;;;;;;;;3.59;87.61;100191.70;104500;1300;61485;-81
2023/01/10 03:22:46;;;;;;;;;;;;;;;3.60;87.64;100195.11;104501;1302;60340;-82
2023/01/10 03:25:14;;;;;;;;;;;;;;;3.60;87.62;100195.63;105346;1299;58131;-82
2023/01/10 03:27:51;;;;;;;;;;;;;;;3.61;87.64;100200.07;105317;1299;68768;-82
2023/01/10 03:30:23;;;;;;;;;;;;;;;3.63;87.64;100203.81;105351;1299;72553;-82
2023/01/10 03:32:48;;;;;;;;;;;;;;;3.64;87.61;100213.70;105309;1300;58546;-82
2023/01/10 03:35:15;;;;;;;;;;;;;;;3.64;87.65;100212.15;105326;1299;58626;-82
2023/01/10 03:38:12;;;;;;;;;;;;;;;3.66;87.66;100220.00;105847;1291;58208;-82
2023/01/10 03:40:54;;;;;;;;;;;;;;;3.69;87.66;100220.35;105676;1294;69506;-82
2023/01/10 03:46:35;;;;;;;;;;;;;;;3.73;87.59;100226.85;105642;1296;58850;-82
2023/01/10 03:49:02;;;;;;;;;;;;;;;3.74;87.62;100231.96;105583;1294;59743;-82
2023/01/10 03:51:28;;;;;;;;;;;;;;;3.75;87.62;100238.12;105044;1296;73812;-82
2023/01/10 03:53:54;;;;;;;;;;;;;;;3.77;87.66;100238.13;104718;1299;59291;-81
2023/01/10 03:56:19;;;;;;;;;;;;;;;3.78;87.64;100246.33;104890;1298;60465;-81
2023/01/10 03:58:44;;;;;;;;;;;;;;;3.79;87.69;100248.89;104815;1294;61026;-81
2023/01/10 04:01:10;;;;;;;;;;;;;;;3.80;87.64;100255.52;104778;1295;60457;-81
2023/01/10 04:03:35;;;;;;;;;;;;;;;3.79;87.64;100252.98;104765;1297;69358;-82
2023/01/10 04:06:02;;;;;;;;;;;;;;;3.77;87.62;100256.03;104854;1295;60496;-81
2023/01/10 04:08:27;;;;;;;;;;;;;;;3.76;87.66;100262.33;104792;1296;60443;-81
2023/01/10 04:10:53;;;;;;;;;;;;;;;3.76;87.67;100264.04;104805;1296;58096;-82
2023/01/10 04:13:18;;;;;;;;;;;;;;;3.77;87.65;100268.48;104840;1299;60519;-81
2023/01/10 04:15:43;;;;;;;;;;;;;;;3.75;87.59;100269.65;105014;1296;60553;-82
2023/01/10 04:18:09;;;;;;;;;;;;;;;3.74;87.60;100278.00;105266;1291;59222;-82
2023/01/10 04:20:34;;;;;;;;;;;;;;;3.74;87.63;100278.85;105157;1291;59420;-81
2023/01/10 04:23:00;;;;;;;;;;;;;;;3.75;87.66;100286.02;105258;1293;60458;-81
2023/01/10 04:25:25;;;;;;;;;;;;;;;3.75;87.65;100291.81;105120;1295;60582;-82
2023/01/10 04:27:51;;;;;;;;;;;;;;;3.76;87.67;100294.04;105280;1290;60486;-81
2023/01/10 04:30:17;;;;;;;;;;;;;;;3.76;87.64;100298.98;105199;1291;58436;-82
2023/01/10 04:32:42;;;;;;;;;;;;;;;3.75;87.62;100308.86;105153;1291;58777;-82
2023/01/10 04:35:08;;;;;;;;;;;;;;;3.74;87.64;100312.77;105230;1291;59486;-81
2023/01/10 04:37:33;;;;;;;;;;;;;;;3.74;87.62;100326.08;105151;1296;60650;-81
2023/01/10 04:39:59;;;;;;;;;;;;;;;3.73;87.59;100327.95;105059;1291;59250;-81
2023/01/10 04:42:24;;;;;;;;;;;;;;;3.72;87.63;100334.25;105225;1293;59025;-82
2023/01/10 04:44:50;;;;;;;;;;;;;;;3.71;87.63;100341.40;105192;1291;59250;-81
2023/01/10 04:47:15;;;;;;;;;;;;;;;3.72;87.57;100348.05;105299;1291;60629;-82
2023/01/10 04:49:41;;;;;;;;;;;;;;;3.73;87.67;100358.11;105166;1291;58684;-81
2023/01/10 04:52:06;;;;;;;;;;;;;;;3.73;87.63;100360.67;105219;1294;59562;-81
2023/01/10 04:54:32;;;;;;;;;;;;;;;3.73;87.60;100366.12;105209;1293;67643;-81
2023/01/10 04:56:57;;;;;;;;;;;;;;;3.73;87.71;100368.52;105172;1295;60510;-81
2023/01/10 04:59:23;;;;;;;;;;;;;;;3.74;87.67;100373.30;105254;1294;58715;-81
2023/01/10 05:01:48;;;;;;;;;;;;;;;3.75;87.73;100372.28;105136;1295;60511;-81
2023/01/10 05:04:14;;;;;;;;;;;;;;;3.77;87.71;100375.52;105239;1295;61483;-81
2023/01/10 05:06:39;;;;;;;;;;;;;;;3.76;87.71;100378.25;105185;1291;72593;-82
2023/01/10 05:09:05;;;;;;;;;;;;;;;3.77;87.70;100384.40;105192;1293;60504;-81
2023/01/10 05:11:30;;;;;;;;;;;;;;;3.78;87.73;100393.45;105215;1293;58896;-81
2023/01/10 05:13:56;;;;;;;;;;;;;;;3.79;87.70;100398.56;105191;1291;60630;-81
2023/01/10 05:16:22;;;;;;;;;;;;;;;3.79;87.71;100401.80;105230;1292;58909;-82
2023/01/10 05:18:49;;;;;;;;;;;;;;;3.80;87.70;100404.20;105337;1291;60563;-81
2023/01/10 05:21:15;;;;;;;;;;;;;;;3.80;87.63;100408.63;105240;1291;60840;-78
2023/01/10 05:23:40;;;;;;;;;;;;;;;3.81;87.71;100407.61;104809;1292;59436;-78
2023/01/10 05:26:10;;;;;;;;;;;;;;;3.81;87.66;100414.45;104823;1295;60429;-78
2023/01/10 05:28:36;;;;;;;;;;;;;;;3.82;87.72;100417.17;104933;1291;72474;-78
2023/01/10 05:31:02;;;;;;;;;;;;;;;3.83;87.69;100422.13;104965;1295;61126;-78
2023/01/10 05:33:27;;;;;;;;;;;;;;;3.84;87.78;100425.71;104864;1291;62204;-78
2023/01/10 05:35:53;;;;;;;;;;;;;;;3.84;87.75;100429.98;104916;1295;60581;-78
2023/01/10 05:38:18;;;;;;;;;;;;;;;3.85;87.85;100434.42;104956;1295;60477;-80
2023/01/10 05:40:44;;;;;;;;;;;;;;;3.86;87.76;100439.89;104889;1297;59334;-79
2023/01/10 05:43:11;;;;;;;;;;;;;;;3.88;87.73;100443.65;104928;1297;60524;-81
2023/01/10 05:45:36;;;;;;;;;;;;;;;3.89;87.75;100451.52;105292;1292;73620;-82
2023/01/10 05:48:02;;;;;;;;;;;;;;;3.90;87.76;100458.16;105319;1291;59302;-79
2023/01/10 05:50:27;;;;;;;;;;;;;;;3.91;87.75;100465.34;104856;1293;59355;-78
2023/01/10 05:52:53;;;;;;;;;;;;;;;3.92;87.81;100470.29;104931;1290;61106;-78
2023/01/10 05:55:18;;;;;;;;;;;;;;;3.93;87.76;100471.83;104833;1297;60441;-78
2023/01/10 05:57:44;;;;;;;;;;;;;;;3.94;87.78;100479.00;104119;1288;308940;-78
2023/01/10 06:00:10;;;;;;;;;;;;;;;3.96;87.82;100486.35;106114;1290;58675;-79
2023/01/10 06:02:35;;;;;;;;;;;;;;;3.97;87.80;100488.75;106064;1290;58298;-78
2023/01/10 06:05:00;;;;;;;;;;;;;;;3.98;87.81;100487.73;106110;1290;59228;-79
2023/01/10 06:07:27;;;;;;;;;;;;;;;3.99;87.80;100491.33;106060;1288;58378;-78
2023/01/10 06:09:52;;;;;;;;;;;;;;;4.01;87.83;100497.48;106131;1289;58318;-78
2023/01/10 06:12:18;;;;;;;;;;;;;;;4.03;87.82;100502.28;106048;1288;58563;-79
2023/01/10 06:14:44;;;;;;;;;;;;;;;4.05;87.77;100510.48;106147;1292;57911;-79
2023/01/10 06:17:09;;;;;;;;;;;;;;;4.06;87.75;100518.17;106079;1292;58484;-78
2023/01/10 06:19:35;;;;;;;;;;;;;;;4.07;87.79;100523.63;106102;1287;58462;-78
2023/01/10 06:22:02;;;;;;;;;;;;;;;4.08;87.75;100523.81;106053;1288;58820;-78
2023/01/10 06:24:27;;;;;;;;;;;;;;;4.10;87.79;100528.44;106183;1289;58341;-79
2023/01/10 06:26:52;;;;;;;;;;;;;;;4.12;87.77;100534.59;106253;1288;58310;-79
2023/01/10 06:29:18;;;;;;;;;;;;;;;4.12;87.71;100539.38;106015;1291;69273;-79
2023/01/10 06:31:44;;;;;;;;;;;;;;;4.13;87.80;100541.09;106067;1289;58272;-79
2023/01/10 06:34:09;;;;;;;;;;;;;;;4.14;87.85;100543.31;106127;1288;58654;-79
2023/01/10 06:36:36;;;;;;;;;;;;;;;4.16;87.85;100546.05;106175;1286;58397;-79
2023/01/10 06:39:01;;;;;;;;;;;;;;;4.17;87.88;100551.33;106269;1288;58545;-79
2023/01/10 06:41:26;;;;;;;;;;;;;;;4.17;87.77;100559.35;106182;1286;58187;-79
2023/01/10 06:43:52;;;;;;;;;;;;;;;4.18;87.83;100561.91;106191;1286;58351;-79
2023/01/10 06:46:18;;;;;;;;;;;;;;;4.19;87.88;100563.96;106118;1291;58545;-79
2023/01/10 06:48:45;;;;;;;;;;;;;;;4.21;87.86;100567.23;106156;1288;58442;-79
2023/01/10 06:51:11;;;;;;;;;;;;;;;4.22;87.89;100569.29;106199;1289;58062;-79
2023/01/10 06:53:37;;;;;;;;;;;;;;;4.24;87.90;100573.91;106168;1288;58361;-79
2023/01/10 06:56:04;;;;;;;;;;;;;;;4.26;87.89;100573.25;106171;1288;58628;-79
2023/01/10 06:58:30;;;;;;;;;;;;;;;4.27;87.92;100575.98;106026;1288;59606;-78
2023/01/10 07:00:55;;;;;;;;;;;;;;;4.29;87.94;100575.48;106080;1286;59525;-78
2023/01/10 07:03:21;;;;;;;;;;;;;;;4.31;87.97;100578.92;106117;1286;58549;-79
2023/01/10 07:05:46;;;;;;;;;;;;;;;4.33;87.92;100585.42;106148;1288;58575;-79
2023/01/10 07:08:12;;;;;;;;;;;;;;;4.33;87.92;100586.63;106119;1289;60005;-79
2023/01/10 07:10:41;;;;;;;;;;;;;;;4.36;87.96;100593.48;106152;1286;58694;-79
2023/01/10 07:13:07;;;;;;;;;;;;;;;4.38;87.96;100603.73;106105;1286;68641;-79
2023/01/10 07:15:32;;;;;;;;;;;;;;;4.39;87.97;100608.02;106185;1288;58344;-79
2023/01/10 07:17:58;;;;;;;;;;;;;;;4.41;88.00;100609.90;106070;1287;57992;-79
2023/01/10 07:20:24;;;;;;;;;;;;;;;4.42;87.95;100609.91;106150;1286;57930;-79
2023/01/10 07:22:57;;;;;;;;;;;;;;;4.44;87.98;100613.52;106131;1286;59158;-79
2023/01/10 07:25:23;;;;;;;;;;;;;;;4.47;88.00;100616.95;106204;1286;68699;-79
2023/01/10 07:27:48;;;;;;;;;;;;;;;4.49;87.99;100618.67;106159;1288;58418;-79
2023/01/10 07:30:14;;;;;;;;;;;;;;;4.51;88.03;100623.48;106163;1287;58534;-79
2023/01/10 07:32:40;;;;;;;;;;;;;;;4.53;88.03;100631.34;106109;1286;58313;-79
2023/01/10 07:35:05;;;;;;;;;;;;;;;4.54;88.04;100635.12;106129;1289;58451;-79
2023/01/10 07:37:30;;;;;;;;;;;;;;;4.55;87.98;100639.05;106192;1288;58257;-79
2023/01/10 07:39:56;;;;;;;;;;;;;;;4.57;88.05;100642.30;106094;1288;58670;-79
2023/01/10 07:42:22;;;;;;;;;;;;;;;4.58;88.09;100644.55;106215;1286;58500;-79
2023/01/10 07:44:48;;;;;;;;;;;;;;;4.61;88.14;100646.10;106153;1286;58614;-79
2023/01/10 07:47:13;;;;;;;;;;;;;;;4.62;88.09;100651.75;106194;1288;58084;-79
2023/01/10 07:49:39;;;;;;;;;;;;;;;4.65;88.11;100657.58;106058;1291;58787;-79
2023/01/10 07:52:07;;;;;;;;;;;;;;;4.67;88.08;100659.64;106080;1286;58582;-79
2023/01/10 07:54:33;;;;;;;;;;;;;;;4.69;88.08;100662.02;105996;1286;176089;-79
2023/01/10 07:56:59;;;;;;;;;;;;;;;4.70;88.15;100666.98;106167;1287;59341;-79
2023/01/10 07:59:24;;;;;;;;;;;;;;;4.73;88.17;100670.76;106293;1287;59652;-79
2023/01/10 08:01:50;;;;;;;;;;;;;;;4.74;88.14;100671.80;106074;1288;59099;-79
2023/01/10 08:04:15;;;;;;;;;;;;;;;4.76;88.20;100674.02;98772;1291;10002316;-79
2023/01/10 08:06:40;;;;;;;;;;;;;;;4.78;88.08;100677.46;106192;1288;59398;-79
2023/01/10 08:09:06;;;;;;;;;;;;;;;4.80;88.13;100680.39;105566;1288;59342;-78
2023/01/10 08:11:32;;;;;;;;;;;;;;;4.81;88.18;100681.59;105329;1291;61249;-79
2023/01/10 08:13:58;;;;;;;;;;;;;;;4.83;88.12;100685.36;105160;1286;75123;-79
2023/01/10 08:16:23;;;;;;;;;;;;;;;4.83;88.20;100689.64;105361;1288;59438;-79
2023/01/10 08:18:48;;;;;;;;;;;;;;;4.85;88.18;100693.91;105127;1288;61395;-78
2023/01/10 08:21:14;;;;;;;;;;;;;;;4.85;88.23;100695.13;105187;1288;61264;-79
2023/01/10 08:23:39;;;;;;;;;;;;;;;4.87;88.29;100697.70;105225;1289;60993;-79
2023/01/10 08:26:06;;;;;;;;;;;;;;;4.88;88.28;100701.98;105291;1287;69038;-78
2023/01/10 08:28:32;;;;;;;;;;;;;;;4.88;88.32;100705.73;105202;1286;61298;-78
2023/01/10 08:30:57;;;;;;;;;;;;;;;4.89;88.32;100703.52;105250;1289;61336;-78
2023/01/10 08:33:23;;;;;;;;;;;;;;;4.91;88.29;100713.09;105298;1288;61264;-79
2023/01/10 08:35:49;;;;;;;;;;;;;;;4.90;88.25;100715.48;105139;1288;61212;-79
2023/01/10 08:38:14;;;;;;;;;;;;;;;4.91;88.34;100718.39;105282;1288;61227;-78
2023/01/10 08:40:40;;;;;;;;;;;;;;;4.91;88.34;100725.41;105198;1289;61262;-78
2023/01/10 08:43:07;;;;;;;;;;;;;;;4.93;88.37;100734.14;105213;1289;61361;-79
2023/01/10 08:45:33;;;;;;;;;;;;;;;4.93;88.36;100737.04;105194;1288;61269;-78
2023/01/10 08:47:58;;;;;;;;;;;;;;;4.94;88.37;100738.76;105184;1288;59708;-78
2023/01/10 08:50:24;;;;;;;;;;;;;;;4.96;88.36;100741.34;105321;1287;61221;-79
2023/01/10 08:52:50;;;;;;;;;;;;;;;4.98;88.42;100746.48;105126;1288;61350;-78
2023/01/10 08:55:16;;;;;;;;;;;;;;;5.00;88.44;100747.00;105208;1289;62059;-79
2023/01/10 08:57:41;;;;;;;;;;;;;;;5.01;88.40;100748.38;105211;1289;59664;-78
2023/01/10 09:00:07;;;;;;;;;;;;;;;5.03;88.39;100756.09;105136;1286;73480;-78
2023/01/10 09:02:33;;;;;;;;;;;;;;;5.05;88.39;100755.41;105165;1291;61231;-78
2023/01/10 09:04:58;;;;;;;;;;;;;;;5.06;88.41;100759.52;105292;1286;61227;-78
2023/01/10 09:07:24;;;;;;;;;;;;;;;5.08;88.38;100767.24;105217;1287;61657;-79
2023/01/10 09:09:49;;;;;;;;;;;;;;;5.09;88.43;100772.73;105214;1291;61288;-79
2023/01/10 09:14:58;;;;;;;;;;;;;;;5.12;88.47;100785.22;105259;1287;61042;-79
2023/01/10 09:17:24;;;;;;;;;;;;;;;5.13;88.39;100791.89;105204;1289;59467;-78
2023/01/10 09:19:50;;;;;;;;;;;;;;;5.14;88.46;100791.90;105335;1286;61444;-78
2023/01/10 09:22:15;;;;;;;;;;;;;;;5.16;88.47;100795.34;105309;1287;60834;-78
2023/01/10 09:24:42;;;;;;;;;;;;;;;5.17;88.46;100796.71;105356;1289;59472;-78
2023/01/10 09:27:09;;;;;;;;;;;;;;;5.20;88.48;100793.48;105173;1286;74880;-79
2023/01/10 09:29:35;;;;;;;;;;;;;;;5.22;88.49;100798.27;105227;1286;59409;-78
2023/01/10 09:32:00;;;;;;;;;;;;;;;5.23;88.52;100800.15;105275;1286;59537;-79
2023/01/10 09:34:26;;;;;;;;;;;;;;;5.25;88.48;100804.10;105178;1291;61210;-78
2023/01/10 09:36:52;;;;;;;;;;;;;;;5.27;88.49;100804.80;105252;1288;59577;-79
2023/01/10 09:39:18;;;;;;;;;;;;;;;5.29;88.56;100809.78;105220;1291;59593;-79
2023/01/10 09:41:52;;;;;;;;;;;;;;;5.31;88.47;100815.27;105264;1286;61450;-79
2023/01/10 09:44:22;;;;;;;;;;;;;;;5.33;88.54;100820.92;105287;1287;61292;-79
2023/01/10 09:46:53;;;;;;;;;;;;;;;5.35;88.54;100819.73;105268;1286;61409;-78
2023/01/10 09:49:19;;;;;;;;;;;;;;;5.37;88.51;100820.44;105312;1286;74306;-78
2023/01/10 09:51:47;;;;;;;;;;;;;;;5.39;88.57;100819.60;105294;1291;59733;-79
2023/01/10 09:54:24;;;;;;;;;;;;;;;5.40;88.59;100820.48;105225;1288;73511;-79
2023/01/10 09:56:51;;;;;;;;;;;;;;;5.42;88.61;100823.39;105216;1291;64024;-78
2023/01/10 09:59:20;;;;;;;;;;;;;;;5.44;88.57;100828.20;105191;1286;60802;-79
2023/01/10 10:01:46;;;;;;;;;;;;;;;5.46;88.60;100829.41;105170;1286;74831;-78
2023/01/10 10:04:21;;;;;;;;;;;;;;;5.48;88.57;100826.69;105169;1288;68546;-78
2023/01/10 10:06:48;;;;;;;;;;;;;;;5.50;88.56;100829.27;105246;1288;73464;-79
2023/01/10 10:09:16;;;;;;;;;;;;;;;5.52;88.58;100829.45;105261;1288;61454;-79
2023/01/10 10:12:00;;;;;;;;;;;;;;;5.54;88.63;100830.16;105189;1293;61358;-78
2023/01/10 10:14:52;;;;;;;;;;;;;;;5.58;88.64;100830.19;105322;1291;75090;-79
2023/01/10 10:17:37;;;;;;;;;;;;;;;5.63;88.63;100828.52;105227;1291;69614;-78
2023/01/10 10:20:21;;;;;;;;;;;;;;;5.67;88.65;100829.75;105252;1288;73682;-79
2023/01/10 10:23:06;;;;;;;;;;;;;;;5.71;88.67;100830.80;105250;1286;59781;-79
2023/01/10 10:25:43;;;;;;;;;;;;;;;5.74;88.63;100837.45;105326;1286;61118;-78
2023/01/10 10:28:30;;;;;;;;;;;;;;;5.75;88.63;100841.75;105267;1288;74294;-79
2023/01/10 10:31:16;;;;;;;;;;;;;;;5.75;88.51;100839.36;104867;1295;68473;-79
2023/01/10 10:34:01;;;;;;;;;;;;;;;5.78;88.61;100839.20;104503;1297;73081;-78
2023/01/10 10:36:38;;;;;;;;;;;;;;;5.83;88.63;100839.08;104519;1297;61245;-78
2023/01/10 10:39:04;;;;;;;;;;;;;;;5.87;88.64;100838.77;104547;1297;60169;-79
2023/01/10 10:41:52;;;;;;;;;;;;;;;5.91;88.62;100834.88;104463;1297;61112;-79
2023/01/10 10:44:29;;;;;;;;;;;;;;;5.93;88.62;100835.40;104020;1304;69447;-79
2023/01/10 10:46:56;;;;;;;;;;;;;;;5.96;88.64;100837.48;104920;1302;72485;-79
2023/01/10 10:49:35;;;;;;;;;;;;;;;6.02;88.70;100840.60;104916;1303;59449;-79
2023/01/10 10:52:03;;;;;;;;;;;;;;;6.09;88.70;100844.23;104971;1302;59978;-79
2023/01/10 10:54:29;;;;;;;;;;;;;;;6.14;88.64;100847.17;104626;1303;74877;-79
2023/01/10 10:56:56;;;;;;;;;;;;;;;6.19;88.69;100852.86;104891;1303;59460;-79
2023/01/10 10:59:21;;;;;;;;;;;;;;;6.23;88.64;100850.30;104929;1303;73748;-79
2023/01/10 11:01:49;;;;;;;;;;;;;;;6.27;88.63;100855.60;104830;1303;59169;-79
2023/01/10 11:04:17;;;;;;;;;;;;;;;6.31;88.60;100858.20;104799;1306;60021;-79
2023/01/10 11:06:47;;;;;;;;;;;;;;;6.35;88.64;100863.02;104778;1303;74442;-79
2023/01/10 11:09:14;;;;;;;;;;;;;;;6.37;88.51;100866.95;104977;1300;70282;-79
2023/01/10 11:11:44;;;;;;;;;;;;;;;6.38;88.52;100866.63;105218;1295;73435;-79
2023/01/10 11:14:11;;;;;;;;;;;;;;;6.38;88.49;100869.88;105449;1297;59897;-79
2023/01/10 11:16:38;;;;;;;;;;;;;;;6.38;88.53;100874.15;105496;1294;60608;-79
2023/01/10 11:19:19;;;;;;;;;;;;;;;6.39;88.52;100877.92;105584;1293;74898;-79
2023/01/10 11:21:47;;;;;;;;;;;;;;;6.41;88.56;100886.16;105892;1289;68380;-79
2023/01/10 11:24:32;;;;;;;;;;;;;;;6.43;88.61;100890.45;106012;1288;72314;-79
2023/01/10 11:27:01;;;;;;;;;;;;;;;6.47;88.64;100894.59;106231;1286;60290;-79
2023/01/10 11:29:33;;;;;;;;;;;;;;;6.48;88.63;100905.03;106174;1287;59886;-79
2023/01/10 11:32:07;;;;;;;;;;;;;;;6.49;88.57;100908.13;106190;1286;74689;-79
2023/01/10 11:34:34;;;;;;;;;;;;;;;6.50;88.58;100906.93;106065;1286;69820;-80
2023/01/10 11:37:01;;;;;;;;;;;;;;;6.52;88.57;100911.40;106179;1286;72739;-80
2023/01/10 11:39:27;;;;;;;;;;;;;;;6.52;88.50;100912.08;106024;1286;59538;-79
2023/01/10 11:41:54;;;;;;;;;;;;;;;6.54;88.56;100916.38;106185;1287;58840;-79
2023/01/10 11:44:28;;;;;;;;;;;;;;;6.55;88.51;100921.69;106069;1288;75121;-79
2023/01/10 11:47:09;;;;;;;;;;;;;;;6.58;88.56;100921.70;106040;1288;67469;-79
2023/01/10 11:49:39;;;;;;;;;;;;;;;6.62;88.57;100925.84;105909;1291;71394;-80
2023/01/10 11:52:12;;;;;;;;;;;;;;;6.65;88.57;100933.90;105864;1286;59298;-79
2023/01/10 11:54:39;;;;;;;;;;;;;;;6.70;88.63;100943.00;106091;1288;59602;-79
2023/01/10 11:57:22;;;;;;;;;;;;;;;6.73;88.57;100947.98;106256;1286;74224;-79
2023/01/10 11:59:59;;;;;;;;;;;;;;;6.80;88.63;100954.34;106278;1286;68697;-79
2023/01/10 12:02:51;;;;;;;;;;;;;;;6.84;88.57;100955.90;106187;1287;72273;-79
2023/01/10 12:05:21;;;;;;;;;;;;;;;6.84;88.46;100955.05;105672;1294;59210;-79
2023/01/10 12:07:56;;;;;;;;;;;;;;;6.82;88.42;100954.86;105490;1291;59926;-79
2023/01/10 12:10:23;;;;;;;;;;;;;;;6.82;88.38;100957.60;105585;1291;75425;-79
2023/01/10 12:12:57;;;;;;;;;;;;;;;6.80;88.45;100955.36;105567;1291;68472;-79
2023/01/10 12:15:32;;;;;;;;;;;;;;;6.80;88.46;100959.14;105619;1294;73416;-79
2023/01/10 12:17:59;;;;;;;;;;;;;;;6.79;88.45;100963.41;105570;1293;59729;-79
2023/01/10 12:20:27;;;;;;;;;;;;;;;6.79;88.46;100965.98;105710;1291;60703;-79
2023/01/10 12:23:13;;;;;;;;;;;;;;;6.79;88.52;100966.84;105602;1292;73246;-79
2023/01/10 12:25:42;;;;;;;;;;;;;;;6.80;88.48;100972.48;105563;1294;67364;-80
2023/01/10 12:28:31;;;;;;;;;;;;;;;6.82;88.47;100980.21;105737;1293;72254;-78
2023/01/10 12:30:58;;;;;;;;;;;;;;;6.83;88.49;100980.40;105771;1293;59614;-78
2023/01/10 12:33:34;;;;;;;;;;;;;;;6.84;88.31;100977.48;105704;1291;60364;-78
2023/01/10 12:36:18;;;;;;;;;;;;;;;6.85;88.36;100976.80;105380;1296;73975;-77
2023/01/10 12:39:04;;;;;;;;;;;;;;;6.85;88.35;100973.89;105437;1300;68319;-78
2023/01/10 12:44:23;;;;;;;;;;;;;;;6.90;88.33;100970.48;105903;1294;59187;-78
2023/01/10 12:46:54;;;;;;;;;;;;;;;6.89;88.23;100969.97;105809;1291;59892;-78
2023/01/10 12:49:24;;;;;;;;;;;;;;;6.86;88.17;100975.10;105818;1290;73414;-77
2023/01/10 12:51:52;;;;;;;;;;;;;;;6.83;88.12;100969.26;105881;1289;68385;-77
2023/01/10 12:54:20;;;;;;;;;;;;;;;6.80;88.24;100977.46;105886;1290;72732;-77
2023/01/10 12:56:46;;;;;;;;;;;;;;;6.75;88.14;100979.87;105834;1289;60076;-78
2023/01/10 12:59:14;;;;;;;;;;;;;;;6.71;88.16;100980.02;105886;1289;59324;-78